sensor_id;sensor_type;location;lat;lon;timestamp;P1;durP1;ratioP1;P2;durP2;ratioP2
32200;SDS011;18701;45.588;5.288;2022-07-18T00:01:46;1.98;;;0.95;;
32200;SDS011;18701;45.588;5.288;2022-07-18T00:04:12;1.48;;;0.65;;
32200;SDS011;18701;45.588;5.288;2022-07-18T00:06:37;2.45;;;0.52;;
32200;SDS011;18701;45.588;5.288;2022-07-18T00:09:03;2.78;;;1.10;;
32200;SDS011;18701;45.588;5.288;2022-07-18T00:11:29;2.00;;;0.80;;
32200;SDS011;18701;45.588;5.288;2022-07-18T00:13:56;2.05;;;0.73;;
32200;SDS011;18701;45.588;5.288;2022-07-18T00:16:22;1.13;;;0.63;;
32200;SDS011;18701;45.588;5.288;2022-07-18T00:18:48;3.65;;;0.95;;
32200;SDS011;18701;45.588;5.288;2022-07-18T00:21:15;2.88;;;0.88;;
32200;SDS011;18701;45.588;5.288;2022-07-18T00:23:41;3.97;;;0.85;;
32200;SDS011;18701;45.588;5.288;2022-07-18T00:26:06;5.80;;;0.77;;
32200;SDS011;18701;45.588;5.288;2022-07-18T00:28:32;4.10;;;0.90;;
32200;SDS011;18701;45.588;5.288;2022-07-18T00:30:58;4.15;;;0.80;;
32200;SDS011;18701;45.588;5.288;2022-07-18T00:33:23;1.10;;;0.85;;
32200;SDS011;18701;45.588;5.288;2022-07-18T00:35:49;3.25;;;0.90;;
32200;SDS011;18701;45.588;5.288;2022-07-18T00:38:15;1.70;;;0.82;;
32200;SDS011;18701;45.588;5.288;2022-07-18T00:40:41;3.30;;;0.80;;
32200;SDS011;18701;45.588;5.288;2022-07-18T00:43:07;3.10;;;0.60;;
32200;SDS011;18701;45.588;5.288;2022-07-18T00:45:32;3.72;;;0.52;;
32200;SDS011;18701;45.588;5.288;2022-07-18T00:47:58;1.92;;;0.60;;
32200;SDS011;18701;45.588;5.288;2022-07-18T00:50:26;4.50;;;0.60;;
32200;SDS011;18701;45.588;5.288;2022-07-18T00:52:52;5.43;;;0.98;;
32200;SDS011;18701;45.588;5.288;2022-07-18T00:55:17;3.10;;;0.90;;
32200;SDS011;18701;45.588;5.288;2022-07-18T00:57:43;4.90;;;0.68;;
32200;SDS011;18701;45.588;5.288;2022-07-18T01:00:10;4.10;;;0.85;;
32200;SDS011;18701;45.588;5.288;2022-07-18T01:02:56;3.95;;;0.70;;
32200;SDS011;18701;45.588;5.288;2022-07-18T01:05:22;2.75;;;0.98;;
32200;SDS011;18701;45.588;5.288;2022-07-18T01:07:48;3.33;;;0.90;;
32200;SDS011;18701;45.588;5.288;2022-07-18T01:10:14;2.97;;;1.10;;
32200;SDS011;18701;45.588;5.288;2022-07-18T01:12:40;2.17;;;1.00;;
32200;SDS011;18701;45.588;5.288;2022-07-18T01:15:06;3.47;;;1.10;;
32200;SDS011;18701;45.588;5.288;2022-07-18T01:17:32;2.90;;;1.17;;
32200;SDS011;18701;45.588;5.288;2022-07-18T01:19:58;1.08;;;0.85;;
32200;SDS011;18701;45.588;5.288;2022-07-18T01:22:26;6.15;;;0.70;;
32200;SDS011;18701;45.588;5.288;2022-07-18T01:24:52;4.78;;;0.70;;
32200;SDS011;18701;45.588;5.288;2022-07-18T01:27:18;4.43;;;0.95;;
32200;SDS011;18701;45.588;5.288;2022-07-18T01:29:46;5.00;;;0.73;;
32200;SDS011;18701;45.588;5.288;2022-07-18T01:32:13;8.73;;;1.00;;
32200;SDS011;18701;45.588;5.288;2022-07-18T01:34:40;2.83;;;0.93;;
32200;SDS011;18701;45.588;5.288;2022-07-18T01:37:07;7.57;;;1.05;;
32200;SDS011;18701;45.588;5.288;2022-07-18T01:39:33;3.33;;;0.73;;
32200;SDS011;18701;45.588;5.288;2022-07-18T01:42:04;6.43;;;0.90;;
32200;SDS011;18701;45.588;5.288;2022-07-18T01:44:32;3.03;;;0.88;;
32200;SDS011;18701;45.588;5.288;2022-07-18T01:46:58;1.95;;;0.63;;
32200;SDS011;18701;45.588;5.288;2022-07-18T01:49:24;2.97;;;1.00;;
32200;SDS011;18701;45.588;5.288;2022-07-18T01:51:54;3.00;;;0.80;;
32200;SDS011;18701;45.588;5.288;2022-07-18T01:54:21;4.25;;;0.95;;
32200;SDS011;18701;45.588;5.288;2022-07-18T01:56:48;1.50;;;0.70;;
32200;SDS011;18701;45.588;5.288;2022-07-18T01:59:14;4.47;;;1.50;;
32200;SDS011;18701;45.588;5.288;2022-07-18T02:01:40;2.45;;;0.60;;
32200;SDS011;18701;45.588;5.288;2022-07-18T02:04:05;2.50;;;0.70;;
32200;SDS011;18701;45.588;5.288;2022-07-18T02:06:31;8.95;;;0.88;;
32200;SDS011;18701;45.588;5.288;2022-07-18T02:08:57;2.47;;;0.80;;
32200;SDS011;18701;45.588;5.288;2022-07-18T02:11:22;6.68;;;1.13;;
32200;SDS011;18701;45.588;5.288;2022-07-18T02:13:48;1.95;;;0.75;;
32200;SDS011;18701;45.588;5.288;2022-07-18T02:16:14;1.35;;;0.70;;
32200;SDS011;18701;45.588;5.288;2022-07-18T02:18:39;7.53;;;0.95;;
32200;SDS011;18701;45.588;5.288;2022-07-18T02:21:05;3.85;;;0.90;;
32200;SDS011;18701;45.588;5.288;2022-07-18T02:23:32;4.15;;;1.00;;
32200;SDS011;18701;45.588;5.288;2022-07-18T02:25:58;2.78;;;1.08;;
32200;SDS011;18701;45.588;5.288;2022-07-18T02:28:27;2.22;;;0.90;;
32200;SDS011;18701;45.588;5.288;2022-07-18T02:30:52;3.13;;;1.00;;
32200;SDS011;18701;45.588;5.288;2022-07-18T02:33:18;4.20;;;1.00;;
32200;SDS011;18701;45.588;5.288;2022-07-18T02:35:44;3.67;;;0.75;;
32200;SDS011;18701;45.588;5.288;2022-07-18T02:38:10;4.95;;;1.20;;
32200;SDS011;18701;45.588;5.288;2022-07-18T02:40:36;3.30;;;0.95;;
32200;SDS011;18701;45.588;5.288;2022-07-18T02:43:02;4.28;;;0.90;;
32200;SDS011;18701;45.588;5.288;2022-07-18T02:45:27;1.60;;;0.88;;
32200;SDS011;18701;45.588;5.288;2022-07-18T02:47:53;2.60;;;0.80;;
32200;SDS011;18701;45.588;5.288;2022-07-18T02:50:22;1.17;;;0.88;;
32200;SDS011;18701;45.588;5.288;2022-07-18T02:52:48;1.85;;;0.73;;
32200;SDS011;18701;45.588;5.288;2022-07-18T02:55:15;2.30;;;0.70;;
32200;SDS011;18701;45.588;5.288;2022-07-18T02:57:41;3.63;;;1.08;;
32200;SDS011;18701;45.588;5.288;2022-07-18T03:00:08;3.20;;;1.02;;
32200;SDS011;18701;45.588;5.288;2022-07-18T03:02:35;4.85;;;1.08;;
32200;SDS011;18701;45.588;5.288;2022-07-18T03:05:01;1.90;;;0.80;;
32200;SDS011;18701;45.588;5.288;2022-07-18T03:07:28;1.95;;;0.80;;
32200;SDS011;18701;45.588;5.288;2022-07-18T03:09:53;2.47;;;0.90;;
32200;SDS011;18701;45.588;5.288;2022-07-18T03:12:22;4.53;;;0.85;;
32200;SDS011;18701;45.588;5.288;2022-07-18T03:14:48;2.55;;;0.60;;
32200;SDS011;18701;45.588;5.288;2022-07-18T03:17:14;8.15;;;0.88;;
32200;SDS011;18701;45.588;5.288;2022-07-18T03:19:39;3.00;;;0.93;;
32200;SDS011;18701;45.588;5.288;2022-07-18T03:22:05;2.47;;;0.95;;
32200;SDS011;18701;45.588;5.288;2022-07-18T03:24:31;5.28;;;0.85;;
32200;SDS011;18701;45.588;5.288;2022-07-18T03:26:57;3.45;;;0.75;;
32200;SDS011;18701;45.588;5.288;2022-07-18T03:29:23;1.67;;;1.02;;
32200;SDS011;18701;45.588;5.288;2022-07-18T03:31:52;3.63;;;0.98;;
32200;SDS011;18701;45.588;5.288;2022-07-18T03:34:17;3.15;;;0.60;;
32200;SDS011;18701;45.588;5.288;2022-07-18T03:36:43;1.48;;;0.88;;
32200;SDS011;18701;45.588;5.288;2022-07-18T03:39:09;5.18;;;0.80;;
32200;SDS011;18701;45.588;5.288;2022-07-18T03:41:35;1.52;;;1.00;;
32200;SDS011;18701;45.588;5.288;2022-07-18T03:44:02;1.73;;;0.93;;
32200;SDS011;18701;45.588;5.288;2022-07-18T03:46:28;6.53;;;1.10;;
32200;SDS011;18701;45.588;5.288;2022-07-18T03:48:54;4.57;;;1.15;;
32200;SDS011;18701;45.588;5.288;2022-07-18T03:51:20;5.57;;;1.40;;
32200;SDS011;18701;45.588;5.288;2022-07-18T03:53:45;3.60;;;0.90;;
32200;SDS011;18701;45.588;5.288;2022-07-18T03:56:11;1.40;;;0.90;;
32200;SDS011;18701;45.588;5.288;2022-07-18T03:58:37;2.28;;;1.00;;
32200;SDS011;18701;45.588;5.288;2022-07-18T04:01:02;3.50;;;1.27;;
32200;SDS011;18701;45.588;5.288;2022-07-18T04:03:28;2.90;;;0.80;;
32200;SDS011;18701;45.588;5.288;2022-07-18T04:05:54;3.10;;;1.02;;
32200;SDS011;18701;45.588;5.288;2022-07-18T04:08:20;1.35;;;0.90;;
32200;SDS011;18701;45.588;5.288;2022-07-18T04:10:46;1.77;;;0.82;;
32200;SDS011;18701;45.588;5.288;2022-07-18T04:13:12;3.35;;;0.73;;
32200;SDS011;18701;45.588;5.288;2022-07-18T04:15:38;3.17;;;1.38;;
32200;SDS011;18701;45.588;5.288;2022-07-18T04:18:04;5.40;;;1.25;;
32200;SDS011;18701;45.588;5.288;2022-07-18T04:20:31;9.77;;;0.88;;
32200;SDS011;18701;45.588;5.288;2022-07-18T04:22:58;7.68;;;1.10;;
32200;SDS011;18701;45.588;5.288;2022-07-18T04:25:26;5.63;;;1.17;;
32200;SDS011;18701;45.588;5.288;2022-07-18T04:27:54;4.72;;;1.00;;
32200;SDS011;18701;45.588;5.288;2022-07-18T04:30:22;6.80;;;1.00;;
32200;SDS011;18701;45.588;5.288;2022-07-18T04:32:52;5.85;;;1.08;;
32200;SDS011;18701;45.588;5.288;2022-07-18T04:35:19;1.60;;;0.98;;
32200;SDS011;18701;45.588;5.288;2022-07-18T04:37:45;7.20;;;1.50;;
32200;SDS011;18701;45.588;5.288;2022-07-18T04:40:12;3.47;;;1.15;;
32200;SDS011;18701;45.588;5.288;2022-07-18T04:42:38;5.38;;;1.45;;
32200;SDS011;18701;45.588;5.288;2022-07-18T04:45:04;3.05;;;1.13;;
32200;SDS011;18701;45.588;5.288;2022-07-18T04:47:31;3.65;;;1.15;;
32200;SDS011;18701;45.588;5.288;2022-07-18T04:49:57;2.83;;;1.10;;
32200;SDS011;18701;45.588;5.288;2022-07-18T04:52:23;8.00;;;1.40;;
32200;SDS011;18701;45.588;5.288;2022-07-18T04:54:49;6.68;;;1.63;;
32200;SDS011;18701;45.588;5.288;2022-07-18T04:57:15;6.15;;;1.50;;
32200;SDS011;18701;45.588;5.288;2022-07-18T04:59:41;5.20;;;1.35;;
32200;SDS011;18701;45.588;5.288;2022-07-18T05:02:10;5.30;;;1.50;;
32200;SDS011;18701;45.588;5.288;2022-07-18T05:04:36;12.00;;;1.60;;
32200;SDS011;18701;45.588;5.288;2022-07-18T05:07:03;6.88;;;1.63;;
32200;SDS011;18701;45.588;5.288;2022-07-18T05:09:30;5.82;;;1.60;;
32200;SDS011;18701;45.588;5.288;2022-07-18T05:11:56;4.75;;;1.38;;
32200;SDS011;18701;45.588;5.288;2022-07-18T05:14:21;5.57;;;1.73;;
32200;SDS011;18701;45.588;5.288;2022-07-18T05:16:47;8.52;;;1.80;;
32200;SDS011;18701;45.588;5.288;2022-07-18T05:19:14;9.23;;;1.80;;
32200;SDS011;18701;45.588;5.288;2022-07-18T05:21:42;8.52;;;1.83;;
32200;SDS011;18701;45.588;5.288;2022-07-18T05:24:09;7.93;;;2.20;;
32200;SDS011;18701;45.588;5.288;2022-07-18T05:26:35;11.65;;;1.75;;
32200;SDS011;18701;45.588;5.288;2022-07-18T05:29:00;23.63;;;2.13;;
32200;SDS011;18701;45.588;5.288;2022-07-18T05:31:26;19.83;;;2.08;;
32200;SDS011;18701;45.588;5.288;2022-07-18T05:33:52;15.20;;;2.80;;
32200;SDS011;18701;45.588;5.288;2022-07-18T05:36:17;14.13;;;2.05;;
32200;SDS011;18701;45.588;5.288;2022-07-18T05:38:43;12.32;;;2.03;;
32200;SDS011;18701;45.588;5.288;2022-07-18T05:41:09;9.55;;;1.80;;
32200;SDS011;18701;45.588;5.288;2022-07-18T05:43:34;7.78;;;1.95;;
32200;SDS011;18701;45.588;5.288;2022-07-18T05:46:00;18.02;;;2.05;;
32200;SDS011;18701;45.588;5.288;2022-07-18T05:48:26;11.63;;;1.80;;
32200;SDS011;18701;45.588;5.288;2022-07-18T05:50:51;12.38;;;1.95;;
32200;SDS011;18701;45.588;5.288;2022-07-18T05:53:17;6.95;;;1.90;;
32200;SDS011;18701;45.588;5.288;2022-07-18T05:55:43;11.57;;;2.08;;
32200;SDS011;18701;45.588;5.288;2022-07-18T05:58:08;15.75;;;1.92;;
32200;SDS011;18701;45.588;5.288;2022-07-18T06:00:34;20.50;;;1.88;;
32200;SDS011;18701;45.588;5.288;2022-07-18T06:03:00;8.52;;;2.30;;
32200;SDS011;18701;45.588;5.288;2022-07-18T06:05:26;10.35;;;2.13;;
32200;SDS011;18701;45.588;5.288;2022-07-18T06:07:52;13.20;;;1.80;;
32200;SDS011;18701;45.588;5.288;2022-07-18T06:10:22;7.90;;;2.15;;
32200;SDS011;18701;45.588;5.288;2022-07-18T06:12:52;6.80;;;1.60;;
32200;SDS011;18701;45.588;5.288;2022-07-18T06:15:22;21.15;;;2.00;;
32200;SDS011;18701;45.588;5.288;2022-07-18T06:17:51;7.05;;;1.92;;
32200;SDS011;18701;45.588;5.288;2022-07-18T06:20:17;8.45;;;1.40;;
32200;SDS011;18701;45.588;5.288;2022-07-18T06:22:43;9.35;;;1.38;;
32200;SDS011;18701;45.588;5.288;2022-07-18T06:25:09;6.50;;;1.55;;
32200;SDS011;18701;45.588;5.288;2022-07-18T06:27:35;17.52;;;2.10;;
32200;SDS011;18701;45.588;5.288;2022-07-18T06:30:01;12.75;;;1.80;;
32200;SDS011;18701;45.588;5.288;2022-07-18T06:32:29;17.88;;;2.28;;
32200;SDS011;18701;45.588;5.288;2022-07-18T06:34:56;15.02;;;2.20;;
32200;SDS011;18701;45.588;5.288;2022-07-18T06:37:21;12.05;;;1.60;;
32200;SDS011;18701;45.588;5.288;2022-07-18T06:39:47;10.52;;;1.67;;
32200;SDS011;18701;45.588;5.288;2022-07-18T06:42:12;9.27;;;1.55;;
32200;SDS011;18701;45.588;5.288;2022-07-18T06:44:38;16.45;;;1.77;;
32200;SDS011;18701;45.588;5.288;2022-07-18T06:47:04;14.20;;;1.48;;
32200;SDS011;18701;45.588;5.288;2022-07-18T06:49:29;10.35;;;1.95;;
32200;SDS011;18701;45.588;5.288;2022-07-18T06:51:58;6.28;;;1.52;;
32200;SDS011;18701;45.588;5.288;2022-07-18T06:54:23;7.90;;;1.98;;
32200;SDS011;18701;45.588;5.288;2022-07-18T06:56:53;4.55;;;1.08;;
32200;SDS011;18701;45.588;5.288;2022-07-18T06:59:19;5.00;;;1.42;;
32200;SDS011;18701;45.588;5.288;2022-07-18T07:01:45;10.48;;;2.45;;
32200;SDS011;18701;45.588;5.288;2022-07-18T07:04:11;8.77;;;1.63;;
32200;SDS011;18701;45.588;5.288;2022-07-18T07:06:36;6.40;;;1.58;;
32200;SDS011;18701;45.588;5.288;2022-07-18T07:09:03;8.73;;;1.80;;
32200;SDS011;18701;45.588;5.288;2022-07-18T07:11:29;8.70;;;1.42;;
32200;SDS011;18701;45.588;5.288;2022-07-18T07:13:55;7.07;;;1.65;;
32200;SDS011;18701;45.588;5.288;2022-07-18T07:16:23;14.20;;;1.55;;
32200;SDS011;18701;45.588;5.288;2022-07-18T07:18:48;4.35;;;1.52;;
32200;SDS011;18701;45.588;5.288;2022-07-18T07:21:14;8.35;;;1.95;;
32200;SDS011;18701;45.588;5.288;2022-07-18T07:23:40;16.30;;;2.83;;
32200;SDS011;18701;45.588;5.288;2022-07-18T07:26:06;9.30;;;1.65;;
32200;SDS011;18701;45.588;5.288;2022-07-18T07:28:32;19.88;;;2.15;;
32200;SDS011;18701;45.588;5.288;2022-07-18T07:30:58;9.23;;;1.98;;
32200;SDS011;18701;45.588;5.288;2022-07-18T07:33:24;9.40;;;1.77;;
32200;SDS011;18701;45.588;5.288;2022-07-18T07:35:50;15.25;;;2.63;;
32200;SDS011;18701;45.588;5.288;2022-07-18T07:38:16;12.98;;;2.60;;
32200;SDS011;18701;45.588;5.288;2022-07-18T07:40:45;12.45;;;2.55;;
32200;SDS011;18701;45.588;5.288;2022-07-18T07:43:13;18.02;;;2.08;;
32200;SDS011;18701;45.588;5.288;2022-07-18T07:45:40;13.98;;;2.38;;
32200;SDS011;18701;45.588;5.288;2022-07-18T07:48:06;13.50;;;2.58;;
32200;SDS011;18701;45.588;5.288;2022-07-18T07:50:32;27.48;;;2.88;;
32200;SDS011;18701;45.588;5.288;2022-07-18T07:52:58;21.65;;;2.22;;
32200;SDS011;18701;45.588;5.288;2022-07-18T07:55:24;12.65;;;2.47;;
32200;SDS011;18701;45.588;5.288;2022-07-18T07:57:50;14.60;;;2.47;;
32200;SDS011;18701;45.588;5.288;2022-07-18T08:00:16;21.70;;;2.97;;
32200;SDS011;18701;45.588;5.288;2022-07-18T08:02:55;10.73;;;1.60;;
32200;SDS011;18701;45.588;5.288;2022-07-18T08:05:22;9.45;;;2.00;;
32200;SDS011;18701;45.588;5.288;2022-07-18T08:07:48;20.70;;;2.10;;
32200;SDS011;18701;45.588;5.288;2022-07-18T08:10:14;15.05;;;2.35;;
32200;SDS011;18701;45.588;5.288;2022-07-18T08:12:40;15.52;;;2.30;;
32200;SDS011;18701;45.588;5.288;2022-07-18T08:15:06;15.18;;;2.25;;
32200;SDS011;18701;45.588;5.288;2022-07-18T08:17:33;29.40;;;2.47;;
32200;SDS011;18701;45.588;5.288;2022-07-18T08:19:59;14.70;;;2.20;;
32200;SDS011;18701;45.588;5.288;2022-07-18T08:22:25;10.32;;;1.48;;
32200;SDS011;18701;45.588;5.288;2022-07-18T08:24:51;7.82;;;2.17;;
32200;SDS011;18701;45.588;5.288;2022-07-18T08:27:16;14.90;;;1.90;;
32200;SDS011;18701;45.588;5.288;2022-07-18T08:29:42;18.45;;;2.20;;
32200;SDS011;18701;45.588;5.288;2022-07-18T08:32:07;14.73;;;1.65;;
32200;SDS011;18701;45.588;5.288;2022-07-18T08:34:33;20.20;;;2.30;;
32200;SDS011;18701;45.588;5.288;2022-07-18T08:36:59;17.63;;;1.90;;
32200;SDS011;18701;45.588;5.288;2022-07-18T08:39:24;15.70;;;1.95;;
32200;SDS011;18701;45.588;5.288;2022-07-18T08:41:50;12.13;;;1.50;;
32200;SDS011;18701;45.588;5.288;2022-07-18T08:44:17;15.05;;;1.83;;
32200;SDS011;18701;45.588;5.288;2022-07-18T08:46:50;6.78;;;1.10;;
32200;SDS011;18701;45.588;5.288;2022-07-18T08:49:16;5.57;;;1.50;;
32200;SDS011;18701;45.588;5.288;2022-07-18T08:51:43;11.75;;;1.48;;
32200;SDS011;18701;45.588;5.288;2022-07-18T08:54:09;7.53;;;1.70;;
32200;SDS011;18701;45.588;5.288;2022-07-18T08:56:35;7.18;;;1.65;;
32200;SDS011;18701;45.588;5.288;2022-07-18T08:59:01;11.55;;;1.60;;
32200;SDS011;18701;45.588;5.288;2022-07-18T09:01:28;9.13;;;1.33;;
32200;SDS011;18701;45.588;5.288;2022-07-18T09:03:57;7.75;;;1.60;;
32200;SDS011;18701;45.588;5.288;2022-07-18T09:06:45;14.18;;;1.65;;
32200;SDS011;18701;45.588;5.288;2022-07-18T09:09:13;9.90;;;1.58;;
32200;SDS011;18701;45.588;5.288;2022-07-18T09:11:56;24.50;;;3.38;;
32200;SDS011;18701;45.588;5.288;2022-07-18T09:14:28;10.20;;;1.50;;
32200;SDS011;18701;45.588;5.288;2022-07-18T09:17:02;11.82;;;1.42;;
32200;SDS011;18701;45.588;5.288;2022-07-18T09:19:33;13.27;;;1.05;;
32200;SDS011;18701;45.588;5.288;2022-07-18T09:22:22;9.98;;;1.40;;
32200;SDS011;18701;45.588;5.288;2022-07-18T09:27:40;25.63;;;3.28;;
32200;SDS011;18701;45.588;5.288;2022-07-18T09:32:33;12.38;;;1.52;;
32200;SDS011;18701;45.588;5.288;2022-07-18T09:35:09;10.73;;;1.35;;
32200;SDS011;18701;45.588;5.288;2022-07-18T09:37:37;6.93;;;1.73;;
32200;SDS011;18701;45.588;5.288;2022-07-18T09:40:17;7.13;;;1.42;;
32200;SDS011;18701;45.588;5.288;2022-07-18T09:42:51;13.38;;;1.50;;
32200;SDS011;18701;45.588;5.288;2022-07-18T09:45:24;12.25;;;1.63;;
32200;SDS011;18701;45.588;5.288;2022-07-18T09:47:52;18.17;;;2.13;;
32200;SDS011;18701;45.588;5.288;2022-07-18T09:50:27;10.73;;;1.70;;
32200;SDS011;18701;45.588;5.288;2022-07-18T09:53:17;8.43;;;1.70;;
32200;SDS011;18701;45.588;5.288;2022-07-18T09:55:58;3.53;;;1.45;;
32200;SDS011;18701;45.588;5.288;2022-07-18T09:58:29;8.23;;;1.80;;
32200;SDS011;18701;45.588;5.288;2022-07-18T10:00:58;5.60;;;1.83;;
32200;SDS011;18701;45.588;5.288;2022-07-18T10:03:28;4.88;;;0.85;;
32200;SDS011;18701;45.588;5.288;2022-07-18T10:05:57;8.77;;;1.65;;
32200;SDS011;18701;45.588;5.288;2022-07-18T10:08:24;2.40;;;1.27;;
32200;SDS011;18701;45.588;5.288;2022-07-18T10:10:52;2.38;;;1.13;;
32200;SDS011;18701;45.588;5.288;2022-07-18T10:13:20;3.40;;;1.17;;
32200;SDS011;18701;45.588;5.288;2022-07-18T10:15:47;2.85;;;0.90;;
32200;SDS011;18701;45.588;5.288;2022-07-18T10:18:16;1.67;;;1.02;;
32200;SDS011;18701;45.588;5.288;2022-07-18T10:20:59;3.33;;;1.05;;
32200;SDS011;18701;45.588;5.288;2022-07-18T10:23:43;1.98;;;0.88;;
32200;SDS011;18701;45.588;5.288;2022-07-18T10:26:14;5.53;;;0.98;;
32200;SDS011;18701;45.588;5.288;2022-07-18T10:31:24;1.30;;;0.70;;
32200;SDS011;18701;45.588;5.288;2022-07-18T10:36:30;2.55;;;0.90;;
32200;SDS011;18701;45.588;5.288;2022-07-18T11:00:09;1.65;;;0.82;;
32200;SDS011;18701;45.588;5.288;2022-07-18T11:16:21;3.47;;;0.60;;
32200;SDS011;18701;45.588;5.288;2022-07-18T11:21:20;5.80;;;0.90;;
32200;SDS011;18701;45.588;5.288;2022-07-18T11:24:03;7.23;;;1.00;;
32200;SDS011;18701;45.588;5.288;2022-07-18T11:26:37;2.40;;;1.05;;
32200;SDS011;18701;45.588;5.288;2022-07-18T11:29:08;5.40;;;1.35;;
32200;SDS011;18701;45.588;5.288;2022-07-18T11:31:45;2.30;;;0.98;;
32200;SDS011;18701;45.588;5.288;2022-07-18T11:34:22;5.07;;;0.82;;
32200;SDS011;18701;45.588;5.288;2022-07-18T11:36:49;4.72;;;1.52;;
32200;SDS011;18701;45.588;5.288;2022-07-18T11:39:16;4.65;;;1.10;;
32200;SDS011;18701;45.588;5.288;2022-07-18T11:41:54;3.78;;;0.82;;
32200;SDS011;18701;45.588;5.288;2022-07-18T11:44:20;7.00;;;1.02;;
32200;SDS011;18701;45.588;5.288;2022-07-18T11:47:05;3.58;;;0.90;;
32200;SDS011;18701;45.588;5.288;2022-07-18T11:49:32;1.48;;;0.75;;
32200;SDS011;18701;45.588;5.288;2022-07-18T11:51:58;2.08;;;0.77;;
32200;SDS011;18701;45.588;5.288;2022-07-18T11:54:25;3.00;;;0.80;;
32200;SDS011;18701;45.588;5.288;2022-07-18T11:56:53;3.70;;;1.10;;
32200;SDS011;18701;45.588;5.288;2022-07-18T11:59:20;4.38;;;1.02;;
32200;SDS011;18701;45.588;5.288;2022-07-18T12:01:46;4.28;;;1.08;;
32200;SDS011;18701;45.588;5.288;2022-07-18T12:04:17;1.70;;;0.90;;
32200;SDS011;18701;45.588;5.288;2022-07-18T12:06:45;4.78;;;0.95;;
32200;SDS011;18701;45.588;5.288;2022-07-18T12:09:31;5.20;;;1.00;;
32200;SDS011;18701;45.588;5.288;2022-07-18T12:11:56;1.27;;;0.85;;
32200;SDS011;18701;45.588;5.288;2022-07-18T12:14:36;2.40;;;0.80;;
32200;SDS011;18701;45.588;5.288;2022-07-18T12:17:03;4.85;;;0.80;;
32200;SDS011;18701;45.588;5.288;2022-07-18T12:19:33;7.53;;;0.80;;
32200;SDS011;18701;45.588;5.288;2022-07-18T12:22:08;5.60;;;1.10;;
32200;SDS011;18701;45.588;5.288;2022-07-18T12:24:36;4.95;;;0.90;;
32200;SDS011;18701;45.588;5.288;2022-07-18T12:32:27;2.67;;;0.57;;
32200;SDS011;18701;45.588;5.288;2022-07-18T12:35:15;9.60;;;0.70;;
32200;SDS011;18701;45.588;5.288;2022-07-18T12:40:43;3.60;;;0.85;;
32200;SDS011;18701;45.588;5.288;2022-07-18T12:45:59;4.28;;;1.10;;
32200;SDS011;18701;45.588;5.288;2022-07-18T12:48:28;6.00;;;0.95;;
32200;SDS011;18701;45.588;5.288;2022-07-18T12:51:04;8.82;;;1.10;;
32200;SDS011;18701;45.588;5.288;2022-07-18T12:53:35;6.55;;;1.20;;
32200;SDS011;18701;45.588;5.288;2022-07-18T12:56:03;3.85;;;1.17;;
32200;SDS011;18701;45.588;5.288;2022-07-18T12:58:29;3.22;;;0.80;;
32200;SDS011;18701;45.588;5.288;2022-07-18T13:00:55;3.65;;;1.10;;
32200;SDS011;18701;45.588;5.288;2022-07-18T13:03:21;6.07;;;1.23;;
32200;SDS011;18701;45.588;5.288;2022-07-18T13:05:47;5.55;;;1.25;;
32200;SDS011;18701;45.588;5.288;2022-07-18T13:08:13;4.68;;;1.40;;
32200;SDS011;18701;45.588;5.288;2022-07-18T13:10:39;8.73;;;1.13;;
32200;SDS011;18701;45.588;5.288;2022-07-18T13:13:06;2.60;;;1.02;;
32200;SDS011;18701;45.588;5.288;2022-07-18T13:15:32;10.95;;;1.42;;
32200;SDS011;18701;45.588;5.288;2022-07-18T13:17:58;3.45;;;0.85;;
32200;SDS011;18701;45.588;5.288;2022-07-18T13:20:24;2.17;;;0.73;;
32200;SDS011;18701;45.588;5.288;2022-07-18T13:22:51;9.20;;;0.90;;
32200;SDS011;18701;45.588;5.288;2022-07-18T13:25:17;3.75;;;0.98;;
32200;SDS011;18701;45.588;5.288;2022-07-18T13:27:43;10.55;;;0.70;;
32200;SDS011;18701;45.588;5.288;2022-07-18T13:30:09;2.30;;;0.70;;
32200;SDS011;18701;45.588;5.288;2022-07-18T13:32:35;7.38;;;0.95;;
32200;SDS011;18701;45.588;5.288;2022-07-18T13:35:01;6.72;;;1.10;;
32200;SDS011;18701;45.588;5.288;2022-07-18T13:37:28;9.07;;;0.85;;
32200;SDS011;18701;45.588;5.288;2022-07-18T13:39:54;5.63;;;1.10;;
32200;SDS011;18701;45.588;5.288;2022-07-18T13:42:19;8.50;;;1.33;;
32200;SDS011;18701;45.588;5.288;2022-07-18T13:44:45;6.80;;;1.20;;
32200;SDS011;18701;45.588;5.288;2022-07-18T13:47:11;5.60;;;1.10;;
32200;SDS011;18701;45.588;5.288;2022-07-18T13:49:37;8.95;;;1.00;;
32200;SDS011;18701;45.588;5.288;2022-07-18T13:52:03;6.25;;;0.90;;
32200;SDS011;18701;45.588;5.288;2022-07-18T13:54:29;5.35;;;0.68;;
32200;SDS011;18701;45.588;5.288;2022-07-18T13:56:55;4.63;;;0.80;;
32200;SDS011;18701;45.588;5.288;2022-07-18T13:59:20;7.20;;;1.02;;
32200;SDS011;18701;45.588;5.288;2022-07-18T14:01:46;4.40;;;0.80;;
32200;SDS011;18701;45.588;5.288;2022-07-18T14:04:12;3.60;;;0.70;;
32200;SDS011;18701;45.588;5.288;2022-07-18T14:06:37;3.17;;;0.50;;
32200;SDS011;18701;45.588;5.288;2022-07-18T14:09:05;4.30;;;0.77;;
32200;SDS011;18701;45.588;5.288;2022-07-18T14:11:31;6.15;;;1.00;;
32200;SDS011;18701;45.588;5.288;2022-07-18T14:13:58;6.57;;;1.02;;
32200;SDS011;18701;45.588;5.288;2022-07-18T14:16:25;6.05;;;1.08;;
32200;SDS011;18701;45.588;5.288;2022-07-18T14:18:50;5.43;;;0.60;;
32200;SDS011;18701;45.588;5.288;2022-07-18T14:21:16;4.50;;;0.93;;
32200;SDS011;18701;45.588;5.288;2022-07-18T14:23:41;5.85;;;0.68;;
32200;SDS011;18701;45.588;5.288;2022-07-18T14:26:10;2.30;;;0.90;;
32200;SDS011;18701;45.588;5.288;2022-07-18T14:28:36;4.78;;;1.02;;
32200;SDS011;18701;45.588;5.288;2022-07-18T14:31:01;3.97;;;0.80;;
32200;SDS011;18701;45.588;5.288;2022-07-18T14:33:27;3.35;;;1.20;;
32200;SDS011;18701;45.588;5.288;2022-07-18T14:35:53;10.90;;;0.80;;
32200;SDS011;18701;45.588;5.288;2022-07-18T14:38:18;12.30;;;1.40;;
32200;SDS011;18701;45.588;5.288;2022-07-18T14:40:44;5.05;;;0.82;;
32200;SDS011;18701;45.588;5.288;2022-07-18T14:43:10;8.43;;;1.27;;
32200;SDS011;18701;45.588;5.288;2022-07-18T14:45:35;6.82;;;1.10;;
32200;SDS011;18701;45.588;5.288;2022-07-18T14:48:01;5.53;;;0.90;;
32200;SDS011;18701;45.588;5.288;2022-07-18T14:50:26;4.93;;;1.00;;
32200;SDS011;18701;45.588;5.288;2022-07-18T14:52:52;3.58;;;0.90;;
32200;SDS011;18701;45.588;5.288;2022-07-18T14:55:18;7.00;;;0.77;;
32200;SDS011;18701;45.588;5.288;2022-07-18T14:57:43;6.22;;;1.60;;
32200;SDS011;18701;45.588;5.288;2022-07-18T15:00:09;8.18;;;1.00;;
32200;SDS011;18701;45.588;5.288;2022-07-18T15:02:36;7.53;;;1.10;;
32200;SDS011;18701;45.588;5.288;2022-07-18T15:05:03;9.73;;;1.15;;
32200;SDS011;18701;45.588;5.288;2022-07-18T15:07:29;9.32;;;1.30;;
32200;SDS011;18701;45.588;5.288;2022-07-18T15:09:55;9.45;;;1.20;;
32200;SDS011;18701;45.588;5.288;2022-07-18T15:12:21;9.05;;;0.95;;
32200;SDS011;18701;45.588;5.288;2022-07-18T15:14:47;10.05;;;1.15;;
32200;SDS011;18701;45.588;5.288;2022-07-18T15:17:12;9.35;;;1.30;;
32200;SDS011;18701;45.588;5.288;2022-07-18T15:19:38;6.97;;;1.38;;
32200;SDS011;18701;45.588;5.288;2022-07-18T15:22:04;15.02;;;1.20;;
32200;SDS011;18701;45.588;5.288;2022-07-18T15:24:32;5.22;;;1.27;;
32200;SDS011;18701;45.588;5.288;2022-07-18T15:26:59;4.32;;;1.10;;
32200;SDS011;18701;45.588;5.288;2022-07-18T15:29:25;4.63;;;0.88;;
32200;SDS011;18701;45.588;5.288;2022-07-18T15:31:51;2.47;;;0.82;;
32200;SDS011;18701;45.588;5.288;2022-07-18T15:34:17;5.70;;;0.95;;
32200;SDS011;18701;45.588;5.288;2022-07-18T15:36:43;9.02;;;0.93;;
32200;SDS011;18701;45.588;5.288;2022-07-18T15:39:08;8.15;;;1.27;;
32200;SDS011;18701;45.588;5.288;2022-07-18T15:41:34;9.95;;;1.17;;
32200;SDS011;18701;45.588;5.288;2022-07-18T15:43:59;6.75;;;1.10;;
32200;SDS011;18701;45.588;5.288;2022-07-18T15:46:25;8.95;;;1.20;;